Time;durP1;ratioP1;P1;durP2;ratioP2;P2;SDS_P1;SDS_P2;PMS_P1;PMS_P2;Temp;Humidity;BMP_temperature;BMP_pressure;BME280_temperature;BME280_humidity;BME280_pressure;Samples;Min_cycle;Max_cycle;Signal;HPM_P1;HPM_P2
2022/01/29 00:00:51;;;;;;;10.45;4.75;;;;;;;0.10;92.18;97031.97;4998499;28;20416;-75
2022/01/29 00:03:17;;;;;;;15.07;5.07;;;;;;;0.11;93.22;97038.72;4993003;28;20417;-76
2022/01/29 00:05:42;;;;;;;19.33;5.05;;;;;;;0.08;92.53;97028.72;4986463;28;20429;-75
2022/01/29 00:08:08;;;;;;;15.55;5.38;;;;;;;0.20;91.94;97028.38;5001915;28;20057;-76
2022/01/29 00:10:34;;;;;;;11.90;4.70;;;;;;;0.20;91.60;97025.78;4990984;28;20523;-76
2022/01/29 00:12:59;;;;;;;11.77;5.35;;;;;;;0.10;92.46;97019.03;5017752;28;20048;-76
2022/01/29 00:15:25;;;;;;;8.50;4.60;;;;;;;0.21;91.46;97010.06;4990336;28;20042;-76
2022/01/29 00:17:51;;;;;;;12.43;4.65;;;;;;;0.27;90.71;97009.41;4993501;28;20049;-76
2022/01/29 00:20:16;;;;;;;17.48;5.07;;;;;;;0.20;91.44;96997.31;4991188;28;20559;-76
2022/01/29 00:22:42;;;;;;;15.57;5.07;;;;;;;0.20;91.86;97010.25;4997273;28;20046;-76
2022/01/29 00:25:09;;;;;;;15.13;5.20;;;;;;;0.19;91.92;97000.84;4989716;28;20048;-76
2022/01/29 00:27:36;;;;;;;13.23;4.97;;;;;;;0.25;90.29;96992.44;4989859;28;20101;-76
2022/01/29 00:30:08;;;;;;;10.73;4.75;;;;;;;0.22;91.94;96995.38;4995047;28;20100;-75
2022/01/29 00:32:34;;;;;;;12.20;5.10;;;;;;;0.21;90.87;96983.38;5017021;28;20411;-76
2022/01/29 00:35:00;;;;;;;11.50;5.45;;;;;;;0.19;91.32;96969.78;4993908;28;20042;-76
2022/01/29 00:37:25;;;;;;;12.57;4.93;;;;;;;0.15;91.87;96964.94;4976795;28;20502;-76
2022/01/29 00:39:51;;;;;;;15.32;5.90;;;;;;;0.16;91.53;96976.13;4988987;28;20488;-76
2022/01/29 00:42:17;;;;;;;12.88;5.47;;;;;;;0.15;91.96;96970.13;4991035;28;20396;-76
2022/01/29 00:44:43;;;;;;;13.77;5.40;;;;;;;0.13;91.80;96964.31;4976220;28;20097;-76
2022/01/29 00:47:09;;;;;;;16.20;4.85;;;;;;;0.17;91.90;96957.84;4980806;28;20089;-76
2022/01/29 00:49:35;;;;;;;12.60;5.00;;;;;;;0.15;91.68;96954.59;4989491;28;20419;-76
2022/01/29 00:52:00;;;;;;;12.80;5.47;;;;;;;0.09;91.88;96950.09;4985817;28;20038;-76
2022/01/29 00:54:26;;;;;;;13.88;4.70;;;;;;;0.10;91.42;96956.06;4988612;28;20039;-75
2022/01/29 00:56:51;;;;;;;11.15;5.05;;;;;;;0.10;91.78;96962.06;5000754;28;20041;-76
2022/01/29 00:59:17;;;;;;;11.13;5.00;;;;;;;0.08;91.62;96961.41;4992720;28;20049;-76
2022/01/29 01:01:42;;;;;;;12.05;4.82;;;;;;;-0.04;92.20;96949.81;4995275;28;20050;-76
2022/01/29 01:04:08;;;;;;;12.57;5.53;;;;;;;-0.04;92.38;96955.00;4991454;28;20465;-76
2022/01/29 01:06:33;;;;;;;17.45;5.03;;;;;;;-0.06;92.29;96947.41;4987673;28;20069;-76
2022/01/29 01:08:59;;;;;;;16.92;5.28;;;;;;;-0.11;91.99;96954.03;4987521;28;20045;-75
2022/01/29 01:11:25;;;;;;;12.50;5.25;;;;;;;-0.33;93.51;96946.00;4980282;28;20053;-76
2022/01/29 01:13:50;;;;;;;15.73;5.28;;;;;;;-0.43;94.90;96946.19;4989007;28;20524;-75
2022/01/29 01:16:16;;;;;;;15.75;5.50;;;;;;;-0.39;93.69;96949.22;4996148;28;20504;-76
2022/01/29 01:18:42;;;;;;;9.90;4.72;;;;;;;-0.30;93.85;96940.50;4975761;28;20057;-76
2022/01/29 01:21:07;;;;;;;12.02;5.13;;;;;;;-0.30;93.32;96932.75;4982930;28;20552;-76
2022/01/29 01:23:33;;;;;;;9.50;4.72;;;;;;;-0.38;94.06;96922.41;4996991;28;20497;-76
2022/01/29 01:26:01;;;;;;;17.02;5.00;;;;;;;-0.47;94.52;96918.22;4987857;28;20452;-76
2022/01/29 01:28:26;;;;;;;15.60;5.03;;;;;;;-0.40;94.12;96919.19;4989391;28;20042;-75
2022/01/29 01:30:52;;;;;;;11.80;4.65;;;;;;;-0.40;94.35;96924.38;4988507;28;20053;-76
2022/01/29 01:33:17;;;;;;;10.98;5.18;;;;;;;-0.42;94.59;96928.88;4989821;28;20046;-76
2022/01/29 01:35:48;;;;;;;21.23;5.63;;;;;;;-0.48;94.10;96916.59;4989958;28;20041;-76
2022/01/29 01:38:19;;;;;;;16.50;5.25;;;;;;;-0.48;94.70;96906.25;4993583;28;20042;-76
2022/01/29 01:40:50;;;;;;;20.98;5.32;;;;;;;-0.44;94.67;96902.38;4990347;28;20038;-76
2022/01/29 01:43:16;;;;;;;12.45;4.40;;;;;;;-0.46;94.62;96891.38;4997655;28;20050;-76
2022/01/29 01:45:42;;;;;;;9.00;4.75;;;;;;;-0.46;95.42;96881.03;4987160;28;20499;-76
2022/01/29 01:48:08;;;;;;;9.35;4.32;;;;;;;-0.43;94.14;96883.28;4988976;28;20097;-76
2022/01/29 01:50:35;;;;;;;13.57;5.05;;;;;;;-0.44;94.86;96887.66;4988557;28;20050;-76
2022/01/29 01:53:03;;;;;;;14.00;5.35;;;;;;;-0.47;94.50;96871.69;4988929;28;20043;-75
2022/01/29 01:55:29;;;;;;;15.95;5.35;;;;;;;-0.56;95.15;96863.94;4987947;28;20042;-76
2022/01/29 01:57:57;;;;;;;12.07;4.50;;;;;;;-0.45;95.06;96873.09;4982125;28;20035;-76
2022/01/29 02:00:27;;;;;;;9.10;4.65;;;;;;;-0.50;95.30;96864.22;4982131;28;20046;-76
2022/01/29 02:02:53;;;;;;;12.93;5.22;;;;;;;-0.67;96.60;96866.88;4993142;28;20538;-76
2022/01/29 02:05:19;;;;;;;11.75;5.03;;;;;;;-0.52;96.20;96861.81;4985790;28;20046;-76
2022/01/29 02:07:46;;;;;;;14.15;4.93;;;;;;;-0.45;95.38;96849.03;4987505;28;20097;-76
2022/01/29 02:10:12;;;;;;;9.95;4.75;;;;;;;-0.43;95.15;96852.25;4988046;28;20042;-76
2022/01/29 02:12:56;;;;;;;13.07;4.55;;;;;;;-0.39;95.18;96848.34;4987823;28;20046;-76
2022/01/29 02:15:22;;;;;;;12.95;4.72;;;;;;;-0.60;95.29;96849.72;4987760;28;20051;-76
2022/01/29 02:17:48;;;;;;;12.20;5.18;;;;;;;-0.56;96.38;96848.41;4988931;28;20050;-76
2022/01/29 02:20:15;;;;;;;11.27;4.70;;;;;;;-0.55;96.50;96839.69;4993128;28;20046;-76
2022/01/29 02:22:43;;;;;;;12.05;4.97;;;;;;;-0.59;97.05;96838.41;5011878;28;20077;-76
2022/01/29 02:25:33;;;;;;;12.00;5.13;;;;;;;-0.62;96.93;96837.94;4994331;28;20735;-76
2022/01/29 02:28:06;;;;;;;10.85;4.70;;;;;;;-0.51;96.92;96834.19;4971743;28;20059;-76
2022/01/29 02:30:34;;;;;;;11.40;4.70;;;;;;;-0.38;95.58;96824.13;5003621;28;20049;-75
2022/01/29 02:33:02;;;;;;;12.55;4.57;;;;;;;-0.41;94.83;96804.56;4988256;28;20526;-76
2022/01/29 02:35:28;;;;;;;12.40;4.88;;;;;;;-0.42;95.37;96802.13;4989803;28;20125;-76
2022/01/29 02:37:56;;;;;;;10.10;4.85;;;;;;;-0.46;95.31;96806.03;4988237;28;20530;-76
2022/01/29 02:40:22;;;;;;;14.02;4.47;;;;;;;-0.50;95.36;96805.56;4991624;28;20038;-76
2022/01/29 02:42:49;;;;;;;12.45;5.38;;;;;;;-0.57;95.50;96805.44;4989024;28;20049;-76
2022/01/29 02:45:15;;;;;;;17.52;4.68;;;;;;;-0.59;96.45;96809.97;4999487;28;20506;-75
2022/01/29 02:47:41;;;;;;;12.13;4.40;;;;;;;-0.51;95.95;96803.94;4989709;28;20038;-76
2022/01/29 02:50:07;;;;;;;9.45;4.78;;;;;;;-0.45;95.45;96797.31;4984804;28;20035;-75
2022/01/29 02:52:33;;;;;;;13.73;4.95;;;;;;;-0.50;95.50;96799.56;4991151;28;20135;-76
2022/01/29 02:54:58;;;;;;;11.60;4.90;;;;;;;-0.55;96.09;96807.84;4991973;28;20585;-76
2022/01/29 02:57:25;;;;;;;13.23;5.68;;;;;;;-0.54;95.83;96794.75;4988729;28;20567;-76
2022/01/29 02:59:51;;;;;;;11.75;5.20;;;;;;;-0.57;96.58;96805.44;4999198;28;20046;-76
2022/01/29 03:02:17;;;;;;;11.48;5.13;;;;;;;-0.61;96.13;96798.97;4989520;28;20125;-76
2022/01/29 03:04:43;;;;;;;12.95;5.22;;;;;;;-0.67;97.59;96807.41;5002667;28;20125;-76
2022/01/29 03:07:09;;;;;;;10.73;5.07;;;;;;;-0.85;99.26;96801.63;4994238;28;20046;-76
2022/01/29 03:09:34;;;;;;;12.55;4.97;;;;;;;-0.85;99.66;96805.00;4996028;28;20042;-76
2022/01/29 03:12:00;;;;;;;13.50;5.38;;;;;;;-0.92;98.46;96802.28;5002076;28;20424;-76
2022/01/29 03:14:26;;;;;;;19.13;6.43;;;;;;;-0.67;97.52;96788.50;4991238;28;20054;-76
2022/01/29 03:16:51;;;;;;;12.35;4.95;;;;;;;-0.50;95.70;96784.06;4991460;28;20608;-76
2022/01/29 03:19:17;;;;;;;12.45;4.95;;;;;;;-0.44;94.85;96770.47;4998876;28;20085;-76
2022/01/29 03:21:42;;;;;;;13.05;5.15;;;;;;;-0.51;95.52;96759.19;4990528;28;20046;-76
2022/01/29 03:24:08;;;;;;;10.45;4.75;;;;;;;-0.65;95.75;96766.66;4991542;28;20046;-76
2022/01/29 03:26:33;;;;;;;12.18;4.75;;;;;;;-0.62;95.82;96761.16;4990709;28;20165;-76
2022/01/29 03:28:59;;;;;;;14.23;5.57;;;;;;;-0.64;95.32;96762.31;4992009;28;20038;-76
2022/01/29 03:31:27;;;;;;;13.82;4.82;;;;;;;-0.75;96.43;96766.06;4994954;28;20065;-76
2022/01/29 03:33:53;;;;;;;14.57;5.38;;;;;;;-0.93;98.00;96769.66;4997480;28;20046;-76
2022/01/29 03:36:19;;;;;;;16.20;4.97;;;;;;;-1.02;98.75;96760.34;4986261;28;20106;-76
2022/01/29 03:38:44;;;;;;;12.32;4.53;;;;;;;-0.98;98.01;96756.41;4972883;28;20054;-76
2022/01/29 03:41:13;;;;;;;10.43;4.80;;;;;;;-0.89;97.35;96755.44;4992775;28;20643;-76
2022/01/29 03:43:45;;;;;;;16.15;5.38;;;;;;;-0.96;97.34;96759.66;5003873;28;20400;-76
2022/01/29 03:46:11;;;;;;;14.70;5.35;;;;;;;-0.93;96.64;96754.16;4989743;28;20049;-76
2022/01/29 03:48:36;;;;;;;10.52;5.07;;;;;;;-0.89;96.45;96755.44;4990437;28;20046;-76
2022/01/29 03:51:02;;;;;;;11.80;4.60;;;;;;;-0.88;95.28;96741.56;4991390;28;20519;-76
2022/01/29 03:53:27;;;;;;;11.15;5.03;;;;;;;-0.90;96.70;96748.66;4991570;28;20046;-76
2022/01/29 03:55:53;;;;;;;10.70;4.60;;;;;;;-1.13;97.68;96752.94;4996372;28;20118;-76
2022/01/29 03:58:18;;;;;;;11.50;4.68;;;;;;;-1.16;98.38;96748.09;4990772;28;20752;-76
2022/01/29 04:00:44;;;;;;;11.65;4.65;;;;;;;-1.11;98.27;96748.38;4989424;28;20038;-76
2022/01/29 04:03:09;;;;;;;12.88;4.63;;;;;;;-1.04;98.36;96749.34;4996084;28;20116;-76
2022/01/29 04:05:35;;;;;;;11.63;4.85;;;;;;;-1.16;98.83;96750.69;4993006;28;20043;-76
2022/01/29 04:08:01;;;;;;;12.55;4.78;;;;;;;-1.16;99.56;96742.94;4996777;28;20104;-76
2022/01/29 04:10:28;;;;;;;11.77;4.70;;;;;;;-1.07;98.56;96741.91;4989731;28;20046;-76
2022/01/29 04:12:55;;;;;;;11.32;4.88;;;;;;;-1.12;99.31;96739.00;4998571;28;20042;-76
2022/01/29 04:15:21;;;;;;;12.52;5.10;;;;;;;-1.13;100.00;96724.50;4991283;28;20096;-76
2022/01/29 04:17:46;;;;;;;11.73;3.80;;;;;;;-1.00;98.65;96726.56;4989882;28;20042;-76
2022/01/29 04:20:12;;;;;;;12.10;5.03;;;;;;;-1.01;98.43;96723.16;4990335;28;20046;-76
2022/01/29 04:22:38;;;;;;;16.23;4.88;;;;;;;-0.98;98.47;96720.25;4990514;28;20070;-76
2022/01/29 04:25:04;;;;;;;11.50;4.80;;;;;;;-0.92;97.89;96711.84;4990982;28;20038;-76
2022/01/29 04:27:42;;;;;;;9.95;4.57;;;;;;;-0.92;97.63;96718.78;4993543;28;20675;-76
2022/01/29 04:30:14;;;;;;;14.13;4.85;;;;;;;-0.92;97.22;96721.34;4990411;28;20412;-76
2022/01/29 04:35:06;;;;;;;12.07;4.53;;;;;;;-0.89;97.35;96711.50;4994945;28;20500;-76
2022/01/29 04:37:31;;;;;;;11.73;5.00;;;;;;;-0.92;98.23;96709.25;4989763;28;20050;-76
2022/01/29 04:39:57;;;;;;;11.98;4.50;;;;;;;-0.84;97.64;96710.22;4989493;28;20101;-76
2022/01/29 04:42:23;;;;;;;13.93;5.35;;;;;;;-0.87;98.01;96712.13;4998628;28;20049;-76
2022/01/29 04:44:48;;;;;;;12.55;5.22;;;;;;;-0.89;98.16;96703.75;5019209;28;20038;-76
2022/01/29 04:47:14;;;;;;;9.57;4.35;;;;;;;-0.89;97.66;96700.34;4993207;28;20098;-76
2022/01/29 04:49:39;;;;;;;10.57;4.50;;;;;;;-0.96;98.08;96707.97;4998735;28;20104;-76
2022/01/29 04:52:05;;;;;;;10.77;4.78;;;;;;;-0.99;98.71;96718.66;4989608;28;20481;-76
2022/01/29 04:54:31;;;;;;;9.40;4.45;;;;;;;-0.96;98.52;96715.72;4989827;28;20042;-76
2022/01/29 04:56:56;;;;;;;11.00;4.57;;;;;;;-0.91;98.18;96716.03;4988352;28;20042;-76
2022/01/29 04:59:21;;;;;;;11.90;4.68;;;;;;;-0.89;98.17;96711.50;4988787;28;20141;-76
2022/01/29 05:01:47;;;;;;;13.32;4.72;;;;;;;-0.84;98.14;96705.03;5003667;28;20074;-76
2022/01/29 05:04:13;;;;;;;8.95;3.95;;;;;;;-0.88;98.73;96702.78;4994474;28;20050;-76
2022/01/29 05:06:38;;;;;;;10.93;4.60;;;;;;;-0.89;98.91;96706.34;4988109;28;20047;-76
2022/01/29 05:09:07;;;;;;;9.75;4.47;;;;;;;-1.09;99.53;96708.50;4984548;28;20496;-76
2022/01/29 05:11:32;;;;;;;12.02;5.07;;;;;;;-1.18;100.00;96712.06;4998315;28;20042;-76
2022/01/29 05:13:59;;;;;;;10.70;4.53;;;;;;;-1.07;100.00;96705.75;4988711;28;20081;-76
2022/01/29 05:16:40;;;;;;;13.32;4.32;;;;;;;-1.10;100.00;96719.00;4988611;28;20488;-76
2022/01/29 05:27:18;;;;;;;14.60;4.07;;;;;;;-1.35;100.00;96707.91;4975160;28;20055;-76
2022/01/29 05:29:43;;;;;;;14.68;4.85;;;;;;;-1.34;100.00;96705.16;4985243;28;20401;-76
2022/01/29 05:32:11;;;;;;;11.02;4.47;;;;;;;-1.22;100.00;96701.28;5004621;28;20117;-76
2022/01/29 05:34:37;;;;;;;8.82;4.25;;;;;;;-1.24;100.00;96695.44;4994129;28;20041;-74
2022/01/29 05:37:03;;;;;;;15.43;5.60;;;;;;;-1.32;100.00;96695.50;4989232;28;20118;-75
2022/01/29 05:39:30;;;;;;;12.38;4.68;;;;;;;-1.28;100.00;96694.19;4987605;28;20655;-75
2022/01/29 05:41:57;;;;;;;13.30;4.57;;;;;;;-1.32;100.00;96692.91;4989179;28;20039;-75
2022/01/29 05:44:23;;;;;;;11.23;4.35;;;;;;;-1.31;100.00;96684.16;4989193;28;20492;-75
2022/01/29 05:46:48;;;;;;;8.98;4.40;;;;;;;-1.30;100.00;96680.63;5000232;28;20041;-75
2022/01/29 05:49:14;;;;;;;12.68;4.10;;;;;;;-1.27;100.00;96675.13;4991991;28;20695;-76
2022/01/29 05:51:39;;;;;;;9.45;4.30;;;;;;;-1.38;100.00;96675.47;4997288;28;20037;-75
2022/01/29 05:54:05;;;;;;;13.50;4.10;;;;;;;-1.41;100.00;96686.13;4988975;28;20045;-76
2022/01/29 05:56:31;;;;;;;11.52;4.57;;;;;;;-1.47;100.00;96679.03;4988784;28;20050;-75
2022/01/29 05:58:57;;;;;;;13.35;4.78;;;;;;;-1.34;100.00;96679.34;4988458;28;20043;-75
2022/01/29 06:01:22;;;;;;;9.75;4.50;;;;;;;-1.35;100.00;96682.09;4989113;28;20053;-75
2022/01/29 06:03:48;;;;;;;12.73;4.47;;;;;;;-1.35;100.00;96677.75;4995686;28;20047;-76
2022/01/29 06:06:14;;;;;;;12.98;4.80;;;;;;;-1.50;100.00;96679.38;4990854;28;20042;-75
2022/01/29 06:08:40;;;;;;;14.57;5.30;;;;;;;-1.57;100.00;96680.03;4992144;28;20121;-75
2022/01/29 06:11:06;;;;;;;10.60;5.00;;;;;;;-1.57;100.00;96674.88;4998265;28;20046;-76
2022/01/29 06:13:31;;;;;;;13.82;5.03;;;;;;;-1.65;100.00;96682.63;4993878;28;20039;-75
2022/01/29 06:15:57;;;;;;;11.55;4.38;;;;;;;-1.82;100.00;96681.03;4992427;28;20057;-75
2022/01/29 06:18:24;;;;;;;16.02;4.85;;;;;;;-1.61;100.00;96675.34;4992454;28;20600;-75
2022/01/29 06:20:51;;;;;;;12.52;5.20;;;;;;;-1.53;100.00;96677.13;4992232;28;20041;-76
2022/01/29 06:23:21;;;;;;;12.70;4.63;;;;;;;-1.50;100.00;96669.84;4992731;28;20043;-75
2022/01/29 06:25:47;;;;;;;13.18;5.15;;;;;;;-1.46;100.00;96675.50;4995842;28;20048;-75
2022/01/29 06:28:12;;;;;;;11.18;4.70;;;;;;;-1.45;100.00;96671.94;5003762;28;20042;-75
2022/01/29 06:30:38;;;;;;;11.70;4.60;;;;;;;-1.43;100.00;96680.34;4991848;28;20138;-75
2022/01/29 06:33:11;;;;;;;14.40;4.50;;;;;;;-1.44;100.00;96679.53;4995134;28;20107;-76
2022/01/29 06:35:38;;;;;;;12.35;4.82;;;;;;;-1.49;100.00;96681.00;4990706;28;20053;-75
2022/01/29 06:38:05;;;;;;;13.07;4.80;;;;;;;-1.62;100.00;96687.47;4992599;28;20575;-76
2022/01/29 06:40:32;;;;;;;15.73;5.60;;;;;;;-1.48;100.00;96686.00;4987011;28;20046;-76
2022/01/29 06:42:58;;;;;;;12.88;4.68;;;;;;;-1.35;100.00;96682.91;4992742;28;20050;-76
2022/01/29 06:45:24;;;;;;;12.07;4.60;;;;;;;-1.45;100.00;96671.94;4991503;28;20404;-75
2022/01/29 06:47:50;;;;;;;12.48;4.75;;;;;;;-1.38;100.00;96667.72;5000858;28;20126;-76
2022/01/29 06:50:16;;;;;;;10.85;4.80;;;;;;;-1.38;100.00;96667.72;4992244;28;20046;-75
2022/01/29 06:52:42;;;;;;;7.50;4.13;;;;;;;-1.18;100.00;96662.19;4991383;28;20866;-76
2022/01/29 06:55:07;;;;;;;9.80;4.85;;;;;;;-1.09;100.00;96658.63;4998023;28;20049;-76
2022/01/29 06:57:33;;;;;;;9.52;4.47;;;;;;;-0.98;100.00;96647.88;4990049;28;20034;-76
2022/01/29 06:59:58;;;;;;;5.25;2.90;;;;;;;-0.74;96.32;96643.59;4991760;28;20038;-75
2022/01/29 07:02:24;;;;;;;8.15;3.70;;;;;;;-0.77;98.28;96651.69;4991750;28;20054;-76
2022/01/29 07:04:50;;;;;;;8.85;3.50;;;;;;;-0.86;96.29;96650.94;4991866;28;20053;-75
2022/01/29 07:07:15;;;;;;;9.27;3.72;;;;;;;-0.77;98.10;96655.06;4990495;28;20456;-75
2022/01/29 07:09:41;;;;;;;9.98;3.70;;;;;;;-0.44;92.62;96643.75;4991134;28;20071;-74
2022/01/29 07:12:11;;;;;;;8.32;3.38;;;;;;;-0.22;92.57;96640.34;4989494;28;20417;-77
2022/01/29 07:14:39;;;;;;;5.63;2.40;;;;;;;0.09;86.97;96633.50;4996070;28;20054;-76
2022/01/29 07:17:09;;;;;;;7.60;2.88;;;;;;;0.37;84.32;96625.94;4992064;28;20049;-75
2022/01/29 07:19:35;;;;;;;6.93;2.80;;;;;;;0.50;85.33;96625.31;5003746;28;20042;-73
2022/01/29 07:22:00;;;;;;;5.43;2.50;;;;;;;0.61;84.66;96618.91;4984639;28;20046;-75
2022/01/29 07:24:26;;;;;;;5.07;2.65;;;;;;;0.60;82.25;96619.88;5003613;28;20042;-75
2022/01/29 07:26:51;;;;;;;5.32;2.80;;;;;;;0.57;82.79;96631.41;4990548;28;20420;-75
2022/01/29 07:29:17;;;;;;;5.32;2.60;;;;;;;0.76;80.57;96619.72;4994865;28;20058;-76
2022/01/29 07:31:42;;;;;;;4.43;2.35;;;;;;;0.66;83.62;96621.75;4991385;28;20066;-77
2022/01/29 07:34:08;;;;;;;5.30;2.33;;;;;;;0.72;80.55;96623.66;4984604;28;20049;-75
2022/01/29 07:36:33;;;;;;;5.57;2.45;;;;;;;0.98;77.57;96622.38;4992427;28;20045;-76
2022/01/29 07:38:59;;;;;;;5.05;2.30;;;;;;;0.91;77.73;96616.31;4995384;28;20130;-75
2022/01/29 07:41:25;;;;;;;5.40;2.70;;;;;;;1.04;77.34;96617.25;4993450;28;20050;-77
2022/01/29 07:43:50;;;;;;;4.72;2.22;;;;;;;1.20;75.08;96621.41;4991430;28;20681;-76
2022/01/29 07:46:16;;;;;;;9.30;2.40;;;;;;;1.11;75.93;96632.91;4992968;28;20112;-75
2022/01/29 07:48:41;;;;;;;5.13;2.30;;;;;;;1.05;76.50;96636.22;4991397;28;20042;-75
2022/01/29 07:51:07;;;;;;;5.55;2.10;;;;;;;1.20;75.12;96633.59;4987258;28;20038;-76
2022/01/29 07:53:32;;;;;;;8.05;2.08;;;;;;;1.29;75.21;96634.28;4990222;28;20042;-78
2022/01/29 07:55:58;;;;;;;6.72;2.38;;;;;;;1.31;74.60;96632.31;4989785;28;20038;-74
2022/01/29 07:58:23;;;;;;;4.03;2.20;;;;;;;1.36;74.28;96640.34;4994951;28;20508;-77
2022/01/29 08:00:49;;;;;;;6.15;2.33;;;;;;;1.38;76.26;96638.41;4993721;28;20042;-76
2022/01/29 08:03:14;;;;;;;8.18;2.38;;;;;;;1.31;76.94;96647.88;4995367;28;20077;-76
2022/01/29 08:05:40;;;;;;;8.68;2.13;;;;;;;1.42;74.20;96639.59;4991966;28;20053;-76
2022/01/29 08:08:05;;;;;;;5.53;2.17;;;;;;;1.51;74.81;96646.31;4979213;28;20468;-75
2022/01/29 08:10:31;;;;;;;6.72;2.22;;;;;;;1.61;70.92;96642.59;4992727;28;20575;-74
2022/01/29 08:12:56;;;;;;;4.20;2.10;;;;;;;1.76;72.03;96635.56;4987933;28;20090;-75
2022/01/29 08:15:22;;;;;;;7.80;1.73;;;;;;;1.81;70.49;96635.00;4990984;28;20042;-75
2022/01/29 08:17:47;;;;;;;6.40;2.33;;;;;;;1.66;71.86;96630.69;4990916;28;20046;-76
2022/01/29 08:20:13;;;;;;;5.53;2.50;;;;;;;1.82;69.37;96629.63;4991341;28;20074;-76
2022/01/29 08:22:39;;;;;;;8.10;2.70;;;;;;;1.56;71.17;96625.78;4990362;28;20046;-75
2022/01/29 08:25:05;;;;;;;5.07;2.40;;;;;;;1.62;71.44;96629.44;4990064;28;20053;-73
2022/01/29 08:27:31;;;;;;;6.47;2.47;;;;;;;1.76;71.23;96624.38;4990537;28;20100;-75
2022/01/29 08:29:56;;;;;;;7.50;2.55;;;;;;;1.75;73.49;96626.16;4984751;28;20393;-75
2022/01/29 08:32:22;;;;;;;5.95;2.60;;;;;;;1.59;73.58;96613.44;4991048;28;20097;-74
2022/01/29 08:34:48;;;;;;;6.95;2.33;;;;;;;1.62;72.50;96618.25;4998427;28;20504;-74
2022/01/29 08:37:13;;;;;;;5.68;2.20;;;;;;;1.75;72.76;96608.00;4986475;28;20057;-74
2022/01/29 08:39:39;;;;;;;7.20;2.53;;;;;;;1.87;70.03;96600.53;4986477;28;20038;-74
2022/01/29 08:42:05;;;;;;;4.00;1.77;;;;;;;1.80;72.67;96610.06;4989784;28;20393;-74
2022/01/29 08:44:30;;;;;;;4.25;2.10;;;;;;;1.84;69.62;96606.91;4976665;28;20047;-74
2022/01/29 08:46:56;;;;;;;4.40;2.08;;;;;;;1.86;71.81;96615.28;4999957;28;20044;-75
2022/01/29 08:49:22;;;;;;;7.10;2.30;;;;;;;1.88;73.59;96608.13;4998009;28;20053;-75
2022/01/29 08:51:47;;;;;;;4.90;2.35;;;;;;;1.84;69.85;96601.72;4991937;28;20046;-74
2022/01/29 08:54:13;;;;;;;5.03;2.10;;;;;;;2.08;70.22;96602.28;4998756;28;20046;-74
2022/01/29 08:56:39;;;;;;;3.30;1.80;;;;;;;2.32;66.00;96608.06;4988775;28;20050;-74
2022/01/29 08:59:04;;;;;;;3.03;1.70;;;;;;;2.39;66.41;96596.69;4991504;28;20545;-75
2022/01/29 09:01:30;;;;;;;3.67;1.88;;;;;;;2.29;68.70;96598.03;4993382;28;20048;-75
2022/01/29 09:03:55;;;;;;;4.63;1.80;;;;;;;2.36;65.71;96598.91;4989865;28;20069;-73
2022/01/29 09:06:21;;;;;;;2.47;1.60;;;;;;;2.28;67.79;96601.63;4998206;28;20500;-73
2022/01/29 09:08:49;;;;;;;4.72;2.00;;;;;;;2.59;66.84;96589.03;5002663;28;20576;-74
2022/01/29 09:11:16;;;;;;;3.35;1.83;;;;;;;2.53;65.46;96597.59;5005874;28;20534;-74
2022/01/29 09:13:41;;;;;;;3.67;1.83;;;;;;;2.64;65.30;96585.84;4991552;28;20042;-74
2022/01/29 09:16:07;;;;;;;6.60;1.92;;;;;;;2.57;66.16;96591.03;4985620;28;20043;-75
2022/01/29 09:18:33;;;;;;;5.25;1.90;;;;;;;2.78;64.52;96581.53;4977506;28;20046;-74
2022/01/29 09:20:59;;;;;;;3.42;1.60;;;;;;;2.72;66.51;96582.31;4987475;28;20042;-74
2022/01/29 09:23:24;;;;;;;4.13;1.85;;;;;;;2.92;62.98;96577.97;4989580;28;20053;-73
2022/01/29 09:25:50;;;;;;;2.45;1.38;;;;;;;2.91;62.85;96586.78;4988498;28;20046;-72
2022/01/29 09:28:16;;;;;;;2.42;1.50;;;;;;;2.99;62.69;96569.38;4992890;28;20065;-73
2022/01/29 09:30:43;;;;;;;7.22;1.77;;;;;;;3.02;62.01;96576.81;5000878;28;20431;-73
2022/01/29 09:33:10;;;;;;;2.25;1.42;;;;;;;3.03;62.98;96562.81;5003199;28;20042;-74
2022/01/29 09:35:38;;;;;;;3.15;1.58;;;;;;;3.15;61.81;96571.66;4989500;28;20046;-73
2022/01/29 09:38:05;;;;;;;6.55;1.23;;;;;;;3.10;61.82;96571.44;4990629;28;20070;-74
2022/01/29 09:40:31;;;;;;;4.88;1.92;;;;;;;3.25;58.90;96577.28;4983216;28;20176;-73
2022/01/29 09:42:59;;;;;;;2.55;1.40;;;;;;;3.29;58.73;96562.09;4991464;28;20455;-73
2022/01/29 09:45:24;;;;;;;1.67;0.90;;;;;;;3.26;59.50;96568.50;4988792;28;20051;-73
2022/01/29 09:47:50;;;;;;;1.05;0.88;;;;;;;3.43;57.30;96568.13;4994454;28;20514;-73
2022/01/29 09:50:18;;;;;;;1.90;1.20;;;;;;;3.45;58.38;96561.72;5000557;28;20104;-73
2022/01/29 09:52:44;;;;;;;4.68;1.15;;;;;;;3.38;58.41;96560.13;5000579;28;20409;-76
2022/01/29 09:55:10;;;;;;;1.98;1.10;;;;;;;3.51;59.35;96573.13;4992429;28;20038;-74
2022/01/29 09:57:36;;;;;;;4.03;1.13;;;;;;;3.66;59.74;96569.56;4995641;28;20045;-73
2022/01/29 10:00:04;;;;;;;2.35;0.90;;;;;;;3.53;57.09;96572.94;4993485;28;20416;-74
2022/01/29 10:02:30;;;;;;;1.55;1.00;;;;;;;3.54;57.46;96575.34;4992457;28;20045;-73
2022/01/29 10:04:57;;;;;;;4.22;1.10;;;;;;;3.57;57.86;96574.94;4990110;28;20039;-73
2022/01/29 10:07:26;;;;;;;2.03;1.10;;;;;;;3.63;56.48;96579.38;4991210;28;20504;-73
2022/01/29 10:09:53;;;;;;;4.13;1.10;;;;;;;3.49;54.75;96582.13;4992752;28;20038;-73
2022/01/29 10:12:19;;;;;;;2.53;1.10;;;;;;;3.51;55.34;96573.13;4993222;28;20047;-74
2022/01/29 10:14:52;;;;;;;2.53;1.20;;;;;;;3.62;54.14;96577.75;4992719;28;20050;-72
2022/01/29 10:17:41;;;;;;;2.50;0.90;;;;;;;3.64;55.08;96574.97;4993252;28;20057;-73
2022/01/29 10:20:17;;;;;;;0.82;0.82;;;;;;;3.73;55.99;96583.38;4979124;28;20092;-72
2022/01/29 10:22:48;;;;;;;1.88;1.00;;;;;;;3.66;55.77;96572.16;4993030;28;20060;-73
2022/01/29 10:25:19;;;;;;;2.40;0.73;;;;;;;3.83;53.70;96577.78;4989730;28;20050;-73
2022/01/29 10:28:03;;;;;;;1.00;0.70;;;;;;;3.89;53.48;96582.97;4987244;28;20045;-74
2022/01/29 10:30:30;;;;;;;1.80;0.95;;;;;;;3.77;54.71;96574.16;4992869;28;20054;-72
2022/01/29 10:33:25;;;;;;;4.18;1.02;;;;;;;3.82;54.19;96582.16;4991959;28;20559;-73
2022/01/29 10:36:04;;;;;;;2.88;1.10;;;;;;;3.89;52.94;96577.75;4992372;28;20582;-72
2022/01/29 10:38:45;;;;;;;1.98;0.90;;;;;;;3.88;55.58;96570.97;4992672;28;20038;-73
2022/01/29 10:41:22;;;;;;;2.45;1.02;;;;;;;3.81;53.25;96580.59;4988440;28;20046;-73
2022/01/29 10:44:19;;;;;;;1.35;0.90;;;;;;;3.89;53.21;96569.94;4988838;28;20034;-74
2022/01/29 10:46:52;;;;;;;1.58;0.95;;;;;;;3.84;54.19;96574.97;4988892;28;20101;-75
2022/01/29 10:49:21;;;;;;;2.88;1.05;;;;;;;3.88;55.38;96565.75;4988663;28;20456;-76
2022/01/29 10:52:00;;;;;;;2.25;0.93;;;;;;;3.99;52.06;96566.94;4998606;28;20039;-75
2022/01/29 10:54:26;;;;;;;1.45;1.10;;;;;;;3.97;52.84;96567.16;4989452;28;20100;-75
2022/01/29 10:57:04;;;;;;;3.45;1.02;;;;;;;4.04;51.68;96559.34;4991474;28;20511;-75
2022/01/29 10:59:35;;;;;;;1.65;1.10;;;;;;;4.17;50.69;96548.13;4991689;28;20046;-75
2022/01/29 11:02:05;;;;;;;4.97;1.15;;;;;;;4.04;50.85;96542.91;4990906;28;20042;-75
2022/01/29 11:04:35;;;;;;;1.92;0.93;;;;;;;4.16;51.41;96541.28;4992031;28;20420;-76
2022/01/29 11:07:05;;;;;;;1.67;0.88;;;;;;;4.15;50.85;96534.47;4996417;28;20041;-76
2022/01/29 11:09:32;;;;;;;1.02;0.73;;;;;;;4.09;49.61;96540.50;4993608;28;20704;-77
2022/01/29 11:12:00;;;;;;;0.88;0.65;;;;;;;4.34;50.00;96533.66;4995842;28;20093;-76
2022/01/29 11:14:27;;;;;;;1.35;0.98;;;;;;;4.28;52.83;96526.66;4987783;28;20076;-74
2022/01/29 11:16:53;;;;;;;4.75;2.25;;;;;;;4.41;50.17;96530.22;4983604;28;20038;-74
2022/01/29 11:19:19;;;;;;;2.95;0.98;;;;;;;4.44;49.26;96517.59;4991836;28;20412;-75
2022/01/29 11:21:47;;;;;;;2.42;1.17;;;;;;;4.43;49.70;96515.19;4989911;28;20049;-75
2022/01/29 11:24:18;;;;;;;3.33;1.30;;;;;;;4.51;49.61;96507.13;4991222;28;20050;-74
2022/01/29 11:26:45;;;;;;;4.63;0.93;;;;;;;4.52;48.82;96503.50;4992526;28;20065;-75
2022/01/29 11:29:36;;;;;;;3.22;1.23;;;;;;;4.60;50.02;96505.91;4989228;28;20433;-74
2022/01/29 11:32:20;;;;;;;1.85;1.30;;;;;;;4.64;48.78;96507.09;4987325;28;20077;-75
2022/01/29 11:35:13;;;;;;;2.55;1.38;;;;;;;4.62;49.32;96509.09;4987149;28;20057;-73
2022/01/29 11:37:44;;;;;;;1.48;1.08;;;;;;;4.76;49.40;96514.25;4990321;28;20049;-74
2022/01/29 11:40:13;;;;;;;2.33;1.30;;;;;;;4.80;47.78;96499.81;4990980;28;20046;-75
2022/01/29 11:42:50;;;;;;;0.90;0.80;;;;;;;4.85;48.84;96513.81;4991164;28;20049;-76